sensor_id;sensor_type;location;lat;lon;timestamp;temperature;humidity
28460;DHT22;32528;45.712;9.192;2022-10-30T00:00:23;13.80;99.90
28460;DHT22;32528;45.712;9.192;2022-10-30T00:02:24;13.80;99.90
28460;DHT22;32528;45.712;9.192;2022-10-30T00:04:24;13.80;99.90
28460;DHT22;32528;45.712;9.192;2022-10-30T00:06:25;13.80;99.90
28460;DHT22;32528;45.712;9.192;2022-10-30T00:08:25;13.80;99.90
28460;DHT22;32528;45.712;9.192;2022-10-30T00:10:26;13.70;99.90
28460;DHT22;32528;45.712;9.192;2022-10-30T00:12:27;13.70;99.90
28460;DHT22;32528;45.712;9.192;2022-10-30T00:14:27;13.70;99.90
28460;DHT22;32528;45.712;9.192;2022-10-30T00:16:28;13.60;99.90
28460;DHT22;32528;45.712;9.192;2022-10-30T00:18:28;13.60;99.90
28460;DHT22;32528;45.712;9.192;2022-10-30T00:20:29;13.60;99.90
28460;DHT22;32528;45.712;9.192;2022-10-30T00:22:30;13.70;99.90
28460;DHT22;32528;45.712;9.192;2022-10-30T00:24:30;13.70;99.90
28460;DHT22;32528;45.712;9.192;2022-10-30T00:26:31;13.70;99.90
28460;DHT22;32528;45.712;9.192;2022-10-30T00:28:32;13.70;99.90
28460;DHT22;32528;45.712;9.192;2022-10-30T00:30:33;13.70;99.90
28460;DHT22;32528;45.712;9.192;2022-10-30T00:32:34;13.70;99.90
28460;DHT22;32528;45.712;9.192;2022-10-30T00:34:35;13.70;99.90
28460;DHT22;32528;45.712;9.192;2022-10-30T00:36:35;13.60;99.90
28460;DHT22;32528;45.712;9.192;2022-10-30T00:38:36;13.60;99.90
28460;DHT22;32528;45.712;9.192;2022-10-30T00:40:37;13.70;99.90
28460;DHT22;32528;45.712;9.192;2022-10-30T00:42:37;13.70;99.90
28460;DHT22;32528;45.712;9.192;2022-10-30T00:46:44;13.70;99.90
28460;DHT22;32528;45.712;9.192;2022-10-30T00:48:46;13.70;99.90
28460;DHT22;32528;45.712;9.192;2022-10-30T00:50:48;13.60;99.90
28460;DHT22;32528;45.712;9.192;2022-10-30T00:52:50;13.60;99.90
28460;DHT22;32528;45.712;9.192;2022-10-30T00:54:52;13.70;99.90
28460;DHT22;32528;45.712;9.192;2022-10-30T00:56:54;13.70;99.90
28460;DHT22;32528;45.712;9.192;2022-10-30T00:58:57;13.70;99.90
28460;DHT22;32528;45.712;9.192;2022-10-30T01:01:00;13.60;99.90
28460;DHT22;32528;45.712;9.192;2022-10-30T01:03:03;13.60;99.90
28460;DHT22;32528;45.712;9.192;2022-10-30T01:05:04;13.60;99.90
28460;DHT22;32528;45.712;9.192;2022-10-30T01:07:07;13.60;99.90
28460;DHT22;32528;45.712;9.192;2022-10-30T01:09:09;13.60;99.90
28460;DHT22;32528;45.712;9.192;2022-10-30T01:11:09;13.60;99.90
28460;DHT22;32528;45.712;9.192;2022-10-30T01:13:11;13.60;99.90
28460;DHT22;32528;45.712;9.192;2022-10-30T01:15:12;13.60;99.90
28460;DHT22;32528;45.712;9.192;2022-10-30T01:25:58;13.50;99.90
28460;DHT22;32528;45.712;9.192;2022-10-30T01:36:27;13.50;99.90
28460;DHT22;32528;45.712;9.192;2022-10-30T01:38:31;13.50;99.90
28460;DHT22;32528;45.712;9.192;2022-10-30T01:40:33;13.50;99.90
28460;DHT22;32528;45.712;9.192;2022-10-30T01:42:44;13.50;99.90
28460;DHT22;32528;45.712;9.192;2022-10-30T01:44:45;13.50;99.90
28460;DHT22;32528;45.712;9.192;2022-10-30T01:46:50;13.50;99.90
28460;DHT22;32528;45.712;9.192;2022-10-30T01:50:58;13.40;99.90
28460;DHT22;32528;45.712;9.192;2022-10-30T01:53:14;13.40;99.90
28460;DHT22;32528;45.712;9.192;2022-10-30T01:59:37;13.40;99.90
28460;DHT22;32528;45.712;9.192;2022-10-30T02:01:40;13.40;99.90
28460;DHT22;32528;45.712;9.192;2022-10-30T02:03:42;13.40;99.90
28460;DHT22;32528;45.712;9.192;2022-10-30T02:05:47;13.40;99.90
28460;DHT22;32528;45.712;9.192;2022-10-30T02:07:48;13.40;99.90
28460;DHT22;32528;45.712;9.192;2022-10-30T02:09:51;13.30;99.90
28460;DHT22;32528;45.712;9.192;2022-10-30T02:11:52;13.30;99.90
28460;DHT22;32528;45.712;9.192;2022-10-30T02:13:54;13.30;99.90
28460;DHT22;32528;45.712;9.192;2022-10-30T02:15:56;13.30;99.90
28460;DHT22;32528;45.712;9.192;2022-10-30T02:17:57;13.30;99.90
28460;DHT22;32528;45.712;9.192;2022-10-30T02:19:58;13.30;99.90
28460;DHT22;32528;45.712;9.192;2022-10-30T02:21:59;13.30;99.90
28460;DHT22;32528;45.712;9.192;2022-10-30T02:24:01;13.20;99.90
28460;DHT22;32528;45.712;9.192;2022-10-30T02:26:01;13.20;99.90
28460;DHT22;32528;45.712;9.192;2022-10-30T02:28:02;13.20;99.90
28460;DHT22;32528;45.712;9.192;2022-10-30T02:30:05;13.20;99.90
28460;DHT22;32528;45.712;9.192;2022-10-30T02:32:07;13.20;99.90
28460;DHT22;32528;45.712;9.192;2022-10-30T02:34:09;13.20;99.90
28460;DHT22;32528;45.712;9.192;2022-10-30T02:36:09;13.20;99.90
28460;DHT22;32528;45.712;9.192;2022-10-30T02:38:11;13.10;99.90
28460;DHT22;32528;45.712;9.192;2022-10-30T02:40:12;13.10;99.90
28460;DHT22;32528;45.712;9.192;2022-10-30T02:42:12;13.10;99.90
28460;DHT22;32528;45.712;9.192;2022-10-30T02:44:13;13.10;99.90
28460;DHT22;32528;45.712;9.192;2022-10-30T02:46:13;13.10;99.90
28460;DHT22;32528;45.712;9.192;2022-10-30T02:48:14;13.10;99.90
28460;DHT22;32528;45.712;9.192;2022-10-30T02:50:15;13.00;99.90
28460;DHT22;32528;45.712;9.192;2022-10-30T02:52:15;13.00;99.90
28460;DHT22;32528;45.712;9.192;2022-10-30T02:54:16;13.00;99.90
28460;DHT22;32528;45.712;9.192;2022-10-30T02:56:17;12.90;99.90
28460;DHT22;32528;45.712;9.192;2022-10-30T02:58:17;13.00;99.90
28460;DHT22;32528;45.712;9.192;2022-10-30T03:00:19;12.90;99.90
28460;DHT22;32528;45.712;9.192;2022-10-30T03:02:21;12.90;99.90
28460;DHT22;32528;45.712;9.192;2022-10-30T03:04:23;12.90;99.90
28460;DHT22;32528;45.712;9.192;2022-10-30T03:06:23;12.90;99.90
28460;DHT22;32528;45.712;9.192;2022-10-30T03:08:24;12.90;99.90
28460;DHT22;32528;45.712;9.192;2022-10-30T03:10:25;12.90;99.90
28460;DHT22;32528;45.712;9.192;2022-10-30T03:12:26;12.80;99.90
28460;DHT22;32528;45.712;9.192;2022-10-30T03:14:26;12.90;99.90
28460;DHT22;32528;45.712;9.192;2022-10-30T03:16:27;12.80;99.90
28460;DHT22;32528;45.712;9.192;2022-10-30T03:18:33;12.80;99.90
28460;DHT22;32528;45.712;9.192;2022-10-30T03:20:40;12.80;99.90
28460;DHT22;32528;45.712;9.192;2022-10-30T03:22:41;12.80;99.90
28460;DHT22;32528;45.712;9.192;2022-10-30T03:24:42;12.80;99.90
28460;DHT22;32528;45.712;9.192;2022-10-30T03:26:42;12.80;99.90
28460;DHT22;32528;45.712;9.192;2022-10-30T03:28:43;12.80;99.90
28460;DHT22;32528;45.712;9.192;2022-10-30T03:30:44;12.80;99.90
28460;DHT22;32528;45.712;9.192;2022-10-30T03:32:45;12.80;99.90
28460;DHT22;32528;45.712;9.192;2022-10-30T03:34:47;12.80;99.90
28460;DHT22;32528;45.712;9.192;2022-10-30T03:36:48;12.70;99.90
28460;DHT22;32528;45.712;9.192;2022-10-30T03:38:49;12.70;99.90
28460;DHT22;32528;45.712;9.192;2022-10-30T03:40:52;12.80;99.90
28460;DHT22;32528;45.712;9.192;2022-10-30T03:42:53;12.80;99.90
28460;DHT22;32528;45.712;9.192;2022-10-30T03:44:54;12.70;99.90
28460;DHT22;32528;45.712;9.192;2022-10-30T03:46:54;12.80;99.90
28460;DHT22;32528;45.712;9.192;2022-10-30T03:49:00;12.80;99.90
28460;DHT22;32528;45.712;9.192;2022-10-30T03:51:01;12.70;99.90
28460;DHT22;32528;45.712;9.192;2022-10-30T03:53:02;12.80;99.90
28460;DHT22;32528;45.712;9.192;2022-10-30T03:55:03;12.70;99.90
28460;DHT22;32528;45.712;9.192;2022-10-30T03:57:04;12.70;99.90
28460;DHT22;32528;45.712;9.192;2022-10-30T03:59:13;12.70;99.90
28460;DHT22;32528;45.712;9.192;2022-10-30T04:01:16;12.70;99.90
28460;DHT22;32528;45.712;9.192;2022-10-30T04:03:20;12.70;99.90
28460;DHT22;32528;45.712;9.192;2022-10-30T04:05:24;12.70;99.90
28460;DHT22;32528;45.712;9.192;2022-10-30T04:07:27;12.70;99.90
28460;DHT22;32528;45.712;9.192;2022-10-30T04:09:28;12.70;99.90
28460;DHT22;32528;45.712;9.192;2022-10-30T04:11:29;12.70;99.90
28460;DHT22;32528;45.712;9.192;2022-10-30T04:13:30;12.70;99.90
28460;DHT22;32528;45.712;9.192;2022-10-30T04:15:31;12.70;99.90
28460;DHT22;32528;45.712;9.192;2022-10-30T04:17:32;12.70;99.90
28460;DHT22;32528;45.712;9.192;2022-10-30T04:19:36;12.80;99.90
28460;DHT22;32528;45.712;9.192;2022-10-30T04:21:37;12.80;99.90
28460;DHT22;32528;45.712;9.192;2022-10-30T04:23:38;12.70;99.90
28460;DHT22;32528;45.712;9.192;2022-10-30T04:25:38;12.70;99.90
28460;DHT22;32528;45.712;9.192;2022-10-30T04:27:40;12.70;99.90
28460;DHT22;32528;45.712;9.192;2022-10-30T04:29:41;12.70;99.90
28460;DHT22;32528;45.712;9.192;2022-10-30T04:31:41;12.70;99.90
28460;DHT22;32528;45.712;9.192;2022-10-30T04:33:42;12.60;99.90
28460;DHT22;32528;45.712;9.192;2022-10-30T04:35:44;12.60;99.90
28460;DHT22;32528;45.712;9.192;2022-10-30T04:39:54;12.60;99.90
28460;DHT22;32528;45.712;9.192;2022-10-30T04:41:59;12.60;99.90
28460;DHT22;32528;45.712;9.192;2022-10-30T04:44:05;12.50;99.90
28460;DHT22;32528;45.712;9.192;2022-10-30T04:46:06;12.50;99.90
28460;DHT22;32528;45.712;9.192;2022-10-30T04:48:11;12.50;99.90
28460;DHT22;32528;45.712;9.192;2022-10-30T04:50:13;12.50;99.90
28460;DHT22;32528;45.712;9.192;2022-10-30T04:52:14;12.40;99.90
28460;DHT22;32528;45.712;9.192;2022-10-30T04:54:14;12.50;99.90
28460;DHT22;32528;45.712;9.192;2022-10-30T04:56:15;12.50;99.90
28460;DHT22;32528;45.712;9.192;2022-10-30T04:58:16;12.40;99.90
28460;DHT22;32528;45.712;9.192;2022-10-30T05:00:25;12.50;99.90
28460;DHT22;32528;45.712;9.192;2022-10-30T05:02:27;12.40;99.90
28460;DHT22;32528;45.712;9.192;2022-10-30T05:04:28;12.40;99.90
28460;DHT22;32528;45.712;9.192;2022-10-30T05:06:29;12.40;99.90
28460;DHT22;32528;45.712;9.192;2022-10-30T05:08:31;12.40;99.90
28460;DHT22;32528;45.712;9.192;2022-10-30T05:10:37;12.40;99.90
28460;DHT22;32528;45.712;9.192;2022-10-30T05:12:42;12.40;99.90
28460;DHT22;32528;45.712;9.192;2022-10-30T05:14:43;12.40;99.90
28460;DHT22;32528;45.712;9.192;2022-10-30T05:16:43;12.40;99.90
28460;DHT22;32528;45.712;9.192;2022-10-30T05:18:44;12.40;99.90
28460;DHT22;32528;45.712;9.192;2022-10-30T05:20:46;12.40;99.90
28460;DHT22;32528;45.712;9.192;2022-10-30T05:22:56;12.40;99.90
28460;DHT22;32528;45.712;9.192;2022-10-30T05:24:57;12.40;99.90
28460;DHT22;32528;45.712;9.192;2022-10-30T05:26:58;12.40;99.90
28460;DHT22;32528;45.712;9.192;2022-10-30T05:28:59;12.40;99.90
28460;DHT22;32528;45.712;9.192;2022-10-30T05:31:00;12.40;99.90
28460;DHT22;32528;45.712;9.192;2022-10-30T05:33:26;12.30;99.90
28460;DHT22;32528;45.712;9.192;2022-10-30T05:35:28;12.30;99.90
28460;DHT22;32528;45.712;9.192;2022-10-30T05:37:29;12.20;99.90
28460;DHT22;32528;45.712;9.192;2022-10-30T05:39:29;12.20;99.90
28460;DHT22;32528;45.712;9.192;2022-10-30T05:41:31;12.30;99.90
28460;DHT22;32528;45.712;9.192;2022-10-30T05:43:32;12.20;99.90
28460;DHT22;32528;45.712;9.192;2022-10-30T05:45:33;12.30;99.90
28460;DHT22;32528;45.712;9.192;2022-10-30T05:47:36;12.30;99.90
28460;DHT22;32528;45.712;9.192;2022-10-30T05:49:36;12.30;99.90
28460;DHT22;32528;45.712;9.192;2022-10-30T05:51:42;12.30;99.90
28460;DHT22;32528;45.712;9.192;2022-10-30T05:53:46;12.40;99.90
28460;DHT22;32528;45.712;9.192;2022-10-30T05:55:48;12.40;99.90
28460;DHT22;32528;45.712;9.192;2022-10-30T05:57:58;12.40;99.90
28460;DHT22;32528;45.712;9.192;2022-10-30T05:59:59;12.40;99.90
28460;DHT22;32528;45.712;9.192;2022-10-30T06:01:59;12.40;99.90
28460;DHT22;32528;45.712;9.192;2022-10-30T06:04:00;12.40;99.90
28460;DHT22;32528;45.712;9.192;2022-10-30T06:06:01;12.50;99.90
28460;DHT22;32528;45.712;9.192;2022-10-30T06:08:02;12.50;99.90
28460;DHT22;32528;45.712;9.192;2022-10-30T06:10:03;12.50;99.90
28460;DHT22;32528;45.712;9.192;2022-10-30T06:12:18;12.50;99.90
28460;DHT22;32528;45.712;9.192;2022-10-30T06:14:39;12.50;99.90
28460;DHT22;32528;45.712;9.192;2022-10-30T06:16:39;12.50;99.90
28460;DHT22;32528;45.712;9.192;2022-10-30T06:18:43;12.50;99.90
28460;DHT22;32528;45.712;9.192;2022-10-30T06:20:46;12.60;99.90
28460;DHT22;32528;45.712;9.192;2022-10-30T06:23:16;12.70;99.90
28460;DHT22;32528;45.712;9.192;2022-10-30T06:25:23;12.70;99.90
28460;DHT22;32528;45.712;9.192;2022-10-30T06:27:45;12.70;99.90
28460;DHT22;32528;45.712;9.192;2022-10-30T06:29:46;12.80;99.90
28460;DHT22;32528;45.712;9.192;2022-10-30T06:31:47;12.90;99.90
28460;DHT22;32528;45.712;9.192;2022-10-30T06:33:48;12.90;99.90
28460;DHT22;32528;45.712;9.192;2022-10-30T06:35:49;13.00;99.90
28460;DHT22;32528;45.712;9.192;2022-10-30T06:37:51;13.00;99.90
28460;DHT22;32528;45.712;9.192;2022-10-30T06:39:53;13.00;99.90
28460;DHT22;32528;45.712;9.192;2022-10-30T06:42:16;13.10;99.90
28460;DHT22;32528;45.712;9.192;2022-10-30T06:44:36;13.20;99.90
28460;DHT22;32528;45.712;9.192;2022-10-30T06:46:36;13.20;99.90
28460;DHT22;32528;45.712;9.192;2022-10-30T06:48:37;13.30;99.90
28460;DHT22;32528;45.712;9.192;2022-10-30T06:50:38;13.40;99.90
28460;DHT22;32528;45.712;9.192;2022-10-30T06:52:39;13.40;99.90
28460;DHT22;32528;45.712;9.192;2022-10-30T06:54:40;13.50;99.90
28460;DHT22;32528;45.712;9.192;2022-10-30T06:57:13;13.50;99.90
28460;DHT22;32528;45.712;9.192;2022-10-30T06:59:33;13.60;99.90
28460;DHT22;32528;45.712;9.192;2022-10-30T07:01:48;13.60;99.90
28460;DHT22;32528;45.712;9.192;2022-10-30T07:03:56;13.70;99.90
28460;DHT22;32528;45.712;9.192;2022-10-30T07:05:57;13.80;99.90
28460;DHT22;32528;45.712;9.192;2022-10-30T07:07:58;13.80;99.90
28460;DHT22;32528;45.712;9.192;2022-10-30T07:09:58;13.90;99.90
28460;DHT22;32528;45.712;9.192;2022-10-30T07:12:18;13.90;99.90
28460;DHT22;32528;45.712;9.192;2022-10-30T07:14:44;14.00;99.90
28460;DHT22;32528;45.712;9.192;2022-10-30T07:17:02;14.10;99.90
28460;DHT22;32528;45.712;9.192;2022-10-30T07:19:04;14.20;99.90
28460;DHT22;32528;45.712;9.192;2022-10-30T07:21:05;14.20;99.90
28460;DHT22;32528;45.712;9.192;2022-10-30T07:23:06;14.30;99.90
28460;DHT22;32528;45.712;9.192;2022-10-30T07:25:07;14.30;99.90
28460;DHT22;32528;45.712;9.192;2022-10-30T07:27:15;14.40;99.90
28460;DHT22;32528;45.712;9.192;2022-10-30T07:29:22;14.40;99.90
28460;DHT22;32528;45.712;9.192;2022-10-30T07:31:44;14.50;99.90
28460;DHT22;32528;45.712;9.192;2022-10-30T07:34:03;14.60;99.90
28460;DHT22;32528;45.712;9.192;2022-10-30T07:36:22;14.60;99.90
28460;DHT22;32528;45.712;9.192;2022-10-30T07:38:36;14.70;99.90
28460;DHT22;32528;45.712;9.192;2022-10-30T07:40:51;14.80;99.90
28460;DHT22;32528;45.712;9.192;2022-10-30T07:43:25;14.80;99.90
28460;DHT22;32528;45.712;9.192;2022-10-30T07:45:35;14.90;99.90
28460;DHT22;32528;45.712;9.192;2022-10-30T07:47:55;15.00;99.90
28460;DHT22;32528;45.712;9.192;2022-10-30T07:50:10;15.10;99.90
28460;DHT22;32528;45.712;9.192;2022-10-30T07:52:12;15.20;99.90
28460;DHT22;32528;45.712;9.192;2022-10-30T07:54:13;15.40;99.90
28460;DHT22;32528;45.712;9.192;2022-10-30T07:56:14;15.40;99.90
28460;DHT22;32528;45.712;9.192;2022-10-30T07:58:43;15.50;99.90
28460;DHT22;32528;45.712;9.192;2022-10-30T08:01:05;15.60;99.90
28460;DHT22;32528;45.712;9.192;2022-10-30T08:03:07;15.80;99.90
28460;DHT22;32528;45.712;9.192;2022-10-30T08:05:17;15.90;99.90
28460;DHT22;32528;45.712;9.192;2022-10-30T08:07:36;16.00;99.90
28460;DHT22;32528;45.712;9.192;2022-10-30T08:09:37;16.00;99.90
28460;DHT22;32528;45.712;9.192;2022-10-30T08:11:38;16.10;99.90
28460;DHT22;32528;45.712;9.192;2022-10-30T08:13:38;16.20;99.90
28460;DHT22;32528;45.712;9.192;2022-10-30T08:15:41;16.30;99.90
28460;DHT22;32528;45.712;9.192;2022-10-30T08:17:43;16.30;99.90
28460;DHT22;32528;45.712;9.192;2022-10-30T08:19:44;16.40;99.90
28460;DHT22;32528;45.712;9.192;2022-10-30T08:21:45;16.50;99.90
28460;DHT22;32528;45.712;9.192;2022-10-30T08:23:51;16.50;99.90
28460;DHT22;32528;45.712;9.192;2022-10-30T08:25:52;16.60;99.90
28460;DHT22;32528;45.712;9.192;2022-10-30T08:27:59;16.80;99.90
28460;DHT22;32528;45.712;9.192;2022-10-30T08:30:03;16.80;99.90
28460;DHT22;32528;45.712;9.192;2022-10-30T08:32:05;16.90;99.90
28460;DHT22;32528;45.712;9.192;2022-10-30T08:34:26;17.00;99.90
28460;DHT22;32528;45.712;9.192;2022-10-30T08:36:28;17.20;99.90
28460;DHT22;32528;45.712;9.192;2022-10-30T08:38:29;17.20;99.90
28460;DHT22;32528;45.712;9.192;2022-10-30T08:40:47;17.40;99.90
28460;DHT22;32528;45.712;9.192;2022-10-30T08:42:52;17.50;99.90
28460;DHT22;32528;45.712;9.192;2022-10-30T08:44:55;17.60;99.90
28460;DHT22;32528;45.712;9.192;2022-10-30T08:47:07;17.70;99.90
28460;DHT22;32528;45.712;9.192;2022-10-30T08:49:09;17.80;99.90
28460;DHT22;32528;45.712;9.192;2022-10-30T08:51:15;17.90;99.90
28460;DHT22;32528;45.712;9.192;2022-10-30T08:53:18;18.00;99.90
28460;DHT22;32528;45.712;9.192;2022-10-30T08:55:20;18.10;99.90
28460;DHT22;32528;45.712;9.192;2022-10-30T08:57:20;18.10;99.90
28460;DHT22;32528;45.712;9.192;2022-10-30T08:59:21;18.30;99.90
28460;DHT22;32528;45.712;9.192;2022-10-30T09:01:24;18.40;99.90
28460;DHT22;32528;45.712;9.192;2022-10-30T09:03:44;18.50;99.50
28460;DHT22;32528;45.712;9.192;2022-10-30T09:06:05;18.50;99.20
28460;DHT22;32528;45.712;9.192;2022-10-30T09:08:05;18.50;99.00
28460;DHT22;32528;45.712;9.192;2022-10-30T09:10:38;18.60;98.90
28460;DHT22;32528;45.712;9.192;2022-10-30T09:12:39;18.70;99.30
28460;DHT22;32528;45.712;9.192;2022-10-30T09:14:41;18.80;99.00
28460;DHT22;32528;45.712;9.192;2022-10-30T09:16:43;18.80;98.60
28460;DHT22;32528;45.712;9.192;2022-10-30T09:18:43;18.90;98.50
28460;DHT22;32528;45.712;9.192;2022-10-30T09:20:47;19.00;98.20
28460;DHT22;32528;45.712;9.192;2022-10-30T09:22:48;19.00;98.00
28460;DHT22;32528;45.712;9.192;2022-10-30T09:24:48;19.10;98.30
28460;DHT22;32528;45.712;9.192;2022-10-30T09:27:08;19.20;97.50
28460;DHT22;32528;45.712;9.192;2022-10-30T09:29:18;19.20;96.50
28460;DHT22;32528;45.712;9.192;2022-10-30T09:31:38;19.30;96.90
28460;DHT22;32528;45.712;9.192;2022-10-30T09:33:42;19.30;96.80
28460;DHT22;32528;45.712;9.192;2022-10-30T09:36:20;19.40;96.80
28460;DHT22;32528;45.712;9.192;2022-10-30T09:38:21;19.50;96.50
28460;DHT22;32528;45.712;9.192;2022-10-30T09:42:43;19.70;95.90
28460;DHT22;32528;45.712;9.192;2022-10-30T09:53:34;20.00;96.30
28460;DHT22;32528;45.712;9.192;2022-10-30T10:00:02;20.00;96.30
28460;DHT22;32528;45.712;9.192;2022-10-30T10:04:15;20.20;95.20
28460;DHT22;32528;45.712;9.192;2022-10-30T10:06:19;20.20;95.40
28460;DHT22;32528;45.712;9.192;2022-10-30T10:11:35;20.40;95.20
28460;DHT22;32528;45.712;9.192;2022-10-30T10:13:52;20.40;95.10
28460;DHT22;32528;45.712;9.192;2022-10-30T10:15:54;20.40;95.20
28460;DHT22;32528;45.712;9.192;2022-10-30T10:17:56;20.50;95.30
28460;DHT22;32528;45.712;9.192;2022-10-30T10:19:58;20.60;95.50
28460;DHT22;32528;45.712;9.192;2022-10-30T10:22:00;20.60;95.40
28460;DHT22;32528;45.712;9.192;2022-10-30T10:24:01;20.70;94.80
28460;DHT22;32528;45.712;9.192;2022-10-30T10:26:05;20.70;94.60
28460;DHT22;32528;45.712;9.192;2022-10-30T10:28:13;20.80;94.90
28460;DHT22;32528;45.712;9.192;2022-10-30T10:30:19;20.90;94.50
28460;DHT22;32528;45.712;9.192;2022-10-30T10:34:56;21.10;94.60
28460;DHT22;32528;45.712;9.192;2022-10-30T10:37:05;21.00;94.10
28460;DHT22;32528;45.712;9.192;2022-10-30T10:41:24;21.10;94.50
28460;DHT22;32528;45.712;9.192;2022-10-30T10:45:38;21.30;94.30
28460;DHT22;32528;45.712;9.192;2022-10-30T10:52:08;21.50;92.80
28460;DHT22;32528;45.712;9.192;2022-10-30T10:54:21;21.50;92.50
28460;DHT22;32528;45.712;9.192;2022-10-30T10:56:25;21.50;92.00
28460;DHT22;32528;45.712;9.192;2022-10-30T10:58:32;21.60;91.80
28460;DHT22;32528;45.712;9.192;2022-10-30T11:00:33;21.60;92.90
28460;DHT22;32528;45.712;9.192;2022-10-30T11:04:39;21.70;91.70
28460;DHT22;32528;45.712;9.192;2022-10-30T11:06:40;21.80;91.90
28460;DHT22;32528;45.712;9.192;2022-10-30T11:08:43;21.80;92.00
28460;DHT22;32528;45.712;9.192;2022-10-30T11:10:48;21.80;91.40
28460;DHT22;32528;45.712;9.192;2022-10-30T11:12:50;21.90;91.80
28460;DHT22;32528;45.712;9.192;2022-10-30T11:14:51;21.90;91.00
28460;DHT22;32528;45.712;9.192;2022-10-30T11:19:06;21.90;91.30
28460;DHT22;32528;45.712;9.192;2022-10-30T11:21:08;21.90;91.90
28460;DHT22;32528;45.712;9.192;2022-10-30T11:25:32;22.00;91.70
28460;DHT22;32528;45.712;9.192;2022-10-30T11:27:33;22.00;91.30
28460;DHT22;32528;45.712;9.192;2022-10-30T11:29:34;22.00;90.70
28460;DHT22;32528;45.712;9.192;2022-10-30T11:31:37;22.10;91.10
28460;DHT22;32528;45.712;9.192;2022-10-30T11:33:38;22.20;90.80
28460;DHT22;32528;45.712;9.192;2022-10-30T11:35:41;22.20;90.10
28460;DHT22;32528;45.712;9.192;2022-10-30T11:37:43;22.30;90.50
28460;DHT22;32528;45.712;9.192;2022-10-30T11:39:44;22.40;90.40
28460;DHT22;32528;45.712;9.192;2022-10-30T11:42:01;22.40;90.20
28460;DHT22;32528;45.712;9.192;2022-10-30T11:44:03;22.40;90.30
28460;DHT22;32528;45.712;9.192;2022-10-30T11:46:04;22.40;89.70
28460;DHT22;32528;45.712;9.192;2022-10-30T11:50:28;22.50;88.80
28460;DHT22;32528;45.712;9.192;2022-10-30T11:52:30;22.50;89.90
28460;DHT22;32528;45.712;9.192;2022-10-30T11:54:36;22.50;90.20
28460;DHT22;32528;45.712;9.192;2022-10-30T11:56:37;22.60;90.10
28460;DHT22;32528;45.712;9.192;2022-10-30T11:58:46;22.60;88.40
28460;DHT22;32528;45.712;9.192;2022-10-30T12:00:56;22.60;88.30
28460;DHT22;32528;45.712;9.192;2022-10-30T12:02:57;22.70;89.20
28460;DHT22;32528;45.712;9.192;2022-10-30T12:05:12;22.70;89.70
28460;DHT22;32528;45.712;9.192;2022-10-30T12:09:23;22.70;89.20
28460;DHT22;32528;45.712;9.192;2022-10-30T12:11:27;22.70;88.20
28460;DHT22;32528;45.712;9.192;2022-10-30T12:13:36;22.80;89.00
28460;DHT22;32528;45.712;9.192;2022-10-30T12:15:38;22.90;88.60
28460;DHT22;32528;45.712;9.192;2022-10-30T12:17:39;22.90;88.40
28460;DHT22;32528;45.712;9.192;2022-10-30T12:19:44;22.90;89.30
28460;DHT22;32528;45.712;9.192;2022-10-30T12:21:46;23.00;88.90
28460;DHT22;32528;45.712;9.192;2022-10-30T12:23:52;23.00;89.00
28460;DHT22;32528;45.712;9.192;2022-10-30T12:25:54;23.00;89.20
28460;DHT22;32528;45.712;9.192;2022-10-30T12:27:58;23.00;88.60
28460;DHT22;32528;45.712;9.192;2022-10-30T12:30:03;23.00;87.90
28460;DHT22;32528;45.712;9.192;2022-10-30T12:32:06;23.00;88.30
28460;DHT22;32528;45.712;9.192;2022-10-30T12:36:12;23.00;88.40
28460;DHT22;32528;45.712;9.192;2022-10-30T12:38:26;23.00;88.20
28460;DHT22;32528;45.712;9.192;2022-10-30T12:40:30;23.10;88.70
28460;DHT22;32528;45.712;9.192;2022-10-30T12:42:36;23.10;88.00
28460;DHT22;32528;45.712;9.192;2022-10-30T12:44:38;23.10;86.50
28460;DHT22;32528;45.712;9.192;2022-10-30T12:46:41;23.10;86.40
28460;DHT22;32528;45.712;9.192;2022-10-30T12:48:50;23.10;86.60
28460;DHT22;32528;45.712;9.192;2022-10-30T12:51:06;23.10;87.30
28460;DHT22;32528;45.712;9.192;2022-10-30T12:53:29;23.10;87.30
28460;DHT22;32528;45.712;9.192;2022-10-30T12:55:38;23.10;87.90
28460;DHT22;32528;45.712;9.192;2022-10-30T12:57:44;23.10;87.40
28460;DHT22;32528;45.712;9.192;2022-10-30T12:59:54;23.20;86.30
28460;DHT22;32528;45.712;9.192;2022-10-30T13:04:14;23.30;86.30
28460;DHT22;32528;45.712;9.192;2022-10-30T13:06:22;23.30;87.50
28460;DHT22;32528;45.712;9.192;2022-10-30T13:08:32;23.20;87.40
28460;DHT22;32528;45.712;9.192;2022-10-30T13:13:08;23.20;88.60
28460;DHT22;32528;45.712;9.192;2022-10-30T13:15:26;23.30;88.30
28460;DHT22;32528;45.712;9.192;2022-10-30T13:17:27;23.30;88.30
28460;DHT22;32528;45.712;9.192;2022-10-30T13:19:28;23.30;88.90
28460;DHT22;32528;45.712;9.192;2022-10-30T13:23:41;23.20;88.50
28460;DHT22;32528;45.712;9.192;2022-10-30T13:25:54;23.20;86.90
28460;DHT22;32528;45.712;9.192;2022-10-30T13:30:03;23.20;86.90
28460;DHT22;32528;45.712;9.192;2022-10-30T13:34:24;23.20;87.40
28460;DHT22;32528;45.712;9.192;2022-10-30T13:38:51;23.30;88.50
28460;DHT22;32528;45.712;9.192;2022-10-30T13:53:47;23.40;89.90
28460;DHT22;32528;45.712;9.192;2022-10-30T13:55:48;23.30;89.50
28460;DHT22;32528;45.712;9.192;2022-10-30T14:02:19;23.40;90.20
28460;DHT22;32528;45.712;9.192;2022-10-30T14:04:35;23.40;90.30
28460;DHT22;32528;45.712;9.192;2022-10-30T14:08:56;23.30;90.20
28460;DHT22;32528;45.712;9.192;2022-10-30T14:11:00;23.30;89.90
28460;DHT22;32528;45.712;9.192;2022-10-30T14:15:03;23.30;89.90
28460;DHT22;32528;45.712;9.192;2022-10-30T14:17:10;23.20;90.70
28460;DHT22;32528;45.712;9.192;2022-10-30T14:19:11;23.20;90.50
28460;DHT22;32528;45.712;9.192;2022-10-30T14:21:28;23.20;90.60
28460;DHT22;32528;45.712;9.192;2022-10-30T14:23:35;23.20;90.40
28460;DHT22;32528;45.712;9.192;2022-10-30T14:25:36;23.20;90.60
28460;DHT22;32528;45.712;9.192;2022-10-30T14:27:37;23.20;90.70
28460;DHT22;32528;45.712;9.192;2022-10-30T14:29:40;23.20;90.90
28460;DHT22;32528;45.712;9.192;2022-10-30T14:31:41;23.20;90.70
28460;DHT22;32528;45.712;9.192;2022-10-30T14:33:49;23.10;90.80
28460;DHT22;32528;45.712;9.192;2022-10-30T14:36:46;23.10;90.40
28460;DHT22;32528;45.712;9.192;2022-10-30T14:38:15;23.00;90.50
28460;DHT22;32528;45.712;9.192;2022-10-30T14:47:05;23.00;90.90
28460;DHT22;32528;45.712;9.192;2022-10-30T14:51:33;23.10;91.70
28460;DHT22;32528;45.712;9.192;2022-10-30T14:56:00;23.00;91.70
28460;DHT22;32528;45.712;9.192;2022-10-30T15:05:14;23.00;92.50
28460;DHT22;32528;45.712;9.192;2022-10-30T15:07:32;23.00;92.50
28460;DHT22;32528;45.712;9.192;2022-10-30T15:13:42;22.90;93.20
28460;DHT22;32528;45.712;9.192;2022-10-30T15:15:45;22.90;93.60
28460;DHT22;32528;45.712;9.192;2022-10-30T15:17:57;22.90;92.50